Terminal Aerodrome Forecast
Issued by NWS Bismarck, ND

Home | Current Version | Previous Version | Text Only | Print | Product List | Glossary On
Versions: 1 2 3 4 5 6 7 8 9 10 11 12 13 14 15 16 17 18 19
170
FTUS43 KBIS 091729
TAFISN
TAF
KISN 091729Z 0918/1018 VRB03KT P6SM BKN060
      TEMPO 0918/0921 BKN015
     FM100400 07004KT P6SM BKN030
     FM100700 10005KT P6SM BKN020
     FM101200 10009KT 5SM -SN OVC015=

USA.gov is the U.S. government's official web portal to all federal, state and local government web resources and services.